createdAt,value
2022-11-17T00:01:25.640Z,2.90
2022-11-17T00:03:52.858Z,2.90
2022-11-17T00:06:23.010Z,2.47
2022-11-17T00:08:52.927Z,3.00
2022-11-17T00:11:19.679Z,3.97
2022-11-17T00:14:05.416Z,4.97
2022-11-17T00:16:32.184Z,3.70
2022-11-17T00:19:17.479Z,3.37
2022-11-17T00:21:44.217Z,2.67
2022-11-17T00:24:11.224Z,5.07
2022-11-17T00:27:00.542Z,4.13
2022-11-17T00:29:28.999Z,6.27
2022-11-17T00:32:14.610Z,2.73
2022-11-17T00:34:41.746Z,3.73
2022-11-17T00:37:09.381Z,4.90
2022-11-17T00:39:36.344Z,2.93
2022-11-17T00:42:03.129Z,6.50
2022-11-17T00:44:30.694Z,3.27
2022-11-17T00:46:57.907Z,4.03
2022-11-17T00:49:27.755Z,3.37
2022-11-17T00:51:55.714Z,3.80
2022-11-17T00:54:23.318Z,5.60
2022-11-17T00:56:50.122Z,4.03
2022-11-17T00:59:17.193Z,3.73
2022-11-17T01:01:44.284Z,4.50
2022-11-17T01:04:13.641Z,4.37
2022-11-17T01:06:42.933Z,5.38
2022-11-17T01:09:16.106Z,5.00
2022-11-17T01:11:43.611Z,7.17
2022-11-17T01:14:20.458Z,5.67
2022-11-17T01:16:47.615Z,4.60
2022-11-17T01:19:15.590Z,6.87
2022-11-17T01:21:42.752Z,7.03
2022-11-17T01:24:11.613Z,7.57
2022-11-17T01:26:39.875Z,7.35
2022-11-17T01:29:08.428Z,5.82
2022-11-17T01:31:38.895Z,7.55
2022-11-17T01:34:06.946Z,7.30
2022-11-17T01:36:55.236Z,7.20
2022-11-17T01:39:26.641Z,7.03
2022-11-17T01:41:54.261Z,6.93
2022-11-17T01:44:44.616Z,6.03
2022-11-17T01:47:20.804Z,4.93
2022-11-17T01:49:51.725Z,4.73
2022-11-17T01:52:18.602Z,5.47
2022-11-17T01:54:48.129Z,4.63
2022-11-17T01:57:22.270Z,5.03
2022-11-17T02:00:01.936Z,6.00
2022-11-17T02:02:28.965Z,4.90
2022-11-17T02:05:06.282Z,3.77
2022-11-17T02:07:39.167Z,3.70
2022-11-17T02:10:07.142Z,3.57
2022-11-17T02:12:36.194Z,4.40
2022-11-17T02:15:04.512Z,2.93
2022-11-17T02:17:44.321Z,2.50
2022-11-17T02:20:34.009Z,3.87
2022-11-17T02:23:29.838Z,3.17
2022-11-17T02:26:11.434Z,1.63
2022-11-17T02:28:44.688Z,2.70
2022-11-17T02:31:20.484Z,3.10
2022-11-17T02:34:08.473Z,3.77
2022-11-17T02:36:50.738Z,1.90
2022-11-17T02:39:31.610Z,2.23
2022-11-17T02:42:03.997Z,2.20
2022-11-17T02:44:42.045Z,2.23
2022-11-17T02:47:15.200Z,2.25
2022-11-17T02:49:49.523Z,2.40
2022-11-17T02:52:19.054Z,1.97
2022-11-17T02:54:46.022Z,1.97
2022-11-17T02:57:28.109Z,2.80
2022-11-17T02:59:55.429Z,2.20
2022-11-17T03:02:49.972Z,2.10
2022-11-17T03:05:58.657Z,3.00
2022-11-17T03:08:47.333Z,2.47
2022-11-17T03:11:14.359Z,3.88
2022-11-17T03:14:01.917Z,2.40
2022-11-17T03:16:41.018Z,2.43
2022-11-17T03:19:15.933Z,3.23
2022-11-17T03:21:53.602Z,3.43
2022-11-17T03:24:29.941Z,2.10
2022-11-17T03:27:11.993Z,4.20
2022-11-17T03:29:43.166Z,2.17
2022-11-17T03:32:11.901Z,2.50
2022-11-17T03:34:44.535Z,2.95
2022-11-17T03:37:13.966Z,2.37
2022-11-17T03:39:50.428Z,2.10
2022-11-17T03:42:24.321Z,2.17
2022-11-17T03:44:56.030Z,2.07
2022-11-17T03:47:25.970Z,1.90
2022-11-17T03:50:22.185Z,1.60
2022-11-17T03:52:49.391Z,1.77
2022-11-17T03:55:16.687Z,1.50
2022-11-17T03:57:52.491Z,3.13
2022-11-17T04:00:20.588Z,1.80
2022-11-17T04:02:49.282Z,2.83
2022-11-17T04:05:17.920Z,2.28
2022-11-17T04:07:46.765Z,1.55
2022-11-17T04:13:01.102Z,1.67
2022-11-17T04:15:56.347Z,2.13
2022-11-17T04:18:23.770Z,1.53
2022-11-17T04:20:55.977Z,1.97
2022-11-17T04:23:23.939Z,3.63
2022-11-17T04:26:11.984Z,2.45
2022-11-17T04:28:45.447Z,2.30
2022-11-17T04:31:13.842Z,2.57
2022-11-17T04:33:46.038Z,4.10
2022-11-17T04:36:15.342Z,2.10
2022-11-17T04:38:47.359Z,1.55
2022-11-17T04:41:34.862Z,2.90
2022-11-17T04:44:02.737Z,2.77
2022-11-17T04:46:33.291Z,2.70
2022-11-17T04:49:01.998Z,2.20
2022-11-17T04:51:29.711Z,3.25
2022-11-17T04:53:57.153Z,3.20
2022-11-17T04:56:25.336Z,2.30
2022-11-17T04:58:52.300Z,2.77
2022-11-17T05:01:20.996Z,2.00
2022-11-17T05:03:47.697Z,2.88
2022-11-17T05:06:20.503Z,3.40
2022-11-17T05:08:47.811Z,4.17
2022-11-17T05:11:35.506Z,3.13
2022-11-17T05:14:03.328Z,4.07
2022-11-17T05:16:48.750Z,2.37
2022-11-17T05:19:19.768Z,3.80
2022-11-17T05:21:46.979Z,3.23
2022-11-17T05:24:16.589Z,3.43
2022-11-17T05:26:45.740Z,2.47
2022-11-17T05:29:15.221Z,2.80
2022-11-17T05:31:42.516Z,2.93
2022-11-17T05:34:12.483Z,3.77
2022-11-17T05:36:41.065Z,2.77
2022-11-17T05:39:08.716Z,7.57
2022-11-17T05:41:37.234Z,5.47
2022-11-17T05:44:05.142Z,3.70
2022-11-17T05:46:32.222Z,3.03
2022-11-17T05:48:59.009Z,4.87
2022-11-17T05:51:26.415Z,2.87
2022-11-17T05:53:53.171Z,3.87
2022-11-17T05:56:30.309Z,2.87
2022-11-17T05:59:10.007Z,2.53
2022-11-17T06:01:42.297Z,3.77
2022-11-17T06:04:10.359Z,2.87
2022-11-17T06:06:38.182Z,2.58
2022-11-17T06:09:05.629Z,3.97
2022-11-17T06:11:32.742Z,4.10
2022-11-17T06:13:59.489Z,4.63
2022-11-17T06:16:29.695Z,10.07
2022-11-17T06:19:06.009Z,6.60
2022-11-17T06:22:04.413Z,7.83
2022-11-17T06:24:22.141Z,4.78
2022-11-17T06:26:49.277Z,7.07
2022-11-17T06:29:16.552Z,6.30
2022-11-17T06:31:44.983Z,5.40
2022-11-17T06:34:12.955Z,2.70
2022-11-17T06:36:40.064Z,5.55
2022-11-17T06:39:06.816Z,4.63
2022-11-17T06:41:33.841Z,6.90
2022-11-17T06:44:00.673Z,5.40
2022-11-17T06:46:37.941Z,6.07
2022-11-17T06:49:08.369Z,5.07
2022-11-17T06:51:37.981Z,5.37
2022-11-17T06:54:09.751Z,5.73
2022-11-17T06:56:36.962Z,5.17
2022-11-17T06:59:03.904Z,7.23
2022-11-17T07:01:31.008Z,5.47
2022-11-17T07:03:57.842Z,5.90
2022-11-17T07:06:24.977Z,7.30
2022-11-17T07:08:51.771Z,8.60
2022-11-17T07:11:18.868Z,5.83
2022-11-17T07:13:45.911Z,4.97
2022-11-17T07:16:23.610Z,6.93
2022-11-17T07:18:52.827Z,6.53
2022-11-17T07:21:20.008Z,8.48
2022-11-17T07:23:47.210Z,6.87
2022-11-17T07:26:14.534Z,4.60
2022-11-17T07:28:41.463Z,5.70
2022-11-17T07:31:09.822Z,5.87
2022-11-17T07:33:36.947Z,3.47
2022-11-17T07:36:09.867Z,5.77
2022-11-17T07:38:38.956Z,5.33
2022-11-17T07:41:07.993Z,5.83
2022-11-17T07:43:36.137Z,11.52
2022-11-17T07:46:05.155Z,14.27
2022-11-17T07:48:33.041Z,13.93
2022-11-17T07:51:01.119Z,4.75
2022-11-17T07:53:28.204Z,5.00
2022-11-17T07:55:56.048Z,8.83
2022-11-17T07:58:25.463Z,4.90
2022-11-17T08:00:52.739Z,6.30
2022-11-17T08:03:19.671Z,5.87
2022-11-17T08:05:46.827Z,6.07
2022-11-17T08:08:14.222Z,9.00
2022-11-17T08:10:43.104Z,6.33
2022-11-17T08:13:09.920Z,7.40
2022-11-17T08:15:37.002Z,7.67
2022-11-17T08:18:03.932Z,6.37
2022-11-17T08:20:31.185Z,6.23
2022-11-17T08:22:58.020Z,6.03
2022-11-17T08:25:26.768Z,6.20
2022-11-17T08:27:58.241Z,9.52
2022-11-17T08:30:26.434Z,12.87
2022-11-17T08:32:54.608Z,21.47
2022-11-17T08:35:24.413Z,8.52
2022-11-17T08:37:52.407Z,12.30
2022-11-17T08:40:20.362Z,8.55
2022-11-17T08:42:53.838Z,7.43
2022-11-17T08:45:23.377Z,9.73
2022-11-17T08:47:50.283Z,10.37
2022-11-17T08:50:18.266Z,10.07
2022-11-17T08:52:45.139Z,7.60
2022-11-17T08:55:12.499Z,8.27
2022-11-17T08:57:39.620Z,7.47
2022-11-17T09:00:07.915Z,8.50
2022-11-17T09:02:34.741Z,5.93
2022-11-17T09:05:01.807Z,6.57
2022-11-17T09:07:34.522Z,8.53
2022-11-17T09:10:02.352Z,7.13
2022-11-17T09:12:29.206Z,5.20
2022-11-17T09:14:56.324Z,6.83
2022-11-17T09:17:23.057Z,10.33
2022-11-17T09:19:52.645Z,5.83
2022-11-17T09:22:19.936Z,14.10
2022-11-17T09:24:47.011Z,10.67
2022-11-17T09:27:13.974Z,6.83
2022-11-17T09:29:41.091Z,5.37
2022-11-17T09:32:07.824Z,6.40
2022-11-17T09:34:34.968Z,11.23
2022-11-17T09:37:01.783Z,7.53
2022-11-17T09:39:29.077Z,8.60
2022-11-17T09:41:57.632Z,10.03
2022-11-17T09:44:34.489Z,6.93
2022-11-17T09:47:26.231Z,10.60
2022-11-17T09:49:58.322Z,7.47
2022-11-17T09:52:31.133Z,11.27
2022-11-17T09:54:59.986Z,11.20
2022-11-17T09:57:42.120Z,9.93
2022-11-17T10:00:18.656Z,13.47
2022-11-17T10:02:46.575Z,11.97
2022-11-17T10:05:28.275Z,13.93
2022-11-17T10:07:58.009Z,10.63
2022-11-17T10:10:33.995Z,18.00
2022-11-17T10:13:05.044Z,13.67
2022-11-17T10:15:45.984Z,18.07
2022-11-17T10:18:15.671Z,12.60
2022-11-17T10:20:44.879Z,16.30
2022-11-17T10:23:18.377Z,15.43
2022-11-17T10:25:47.950Z,11.73
2022-11-17T10:31:04.265Z,11.33
2022-11-17T10:33:39.738Z,8.43
2022-11-17T10:36:15.322Z,11.77
2022-11-17T10:38:54.924Z,9.53
2022-11-17T10:41:42.213Z,13.27
2022-11-17T10:44:24.195Z,21.23
2022-11-17T10:47:02.696Z,17.00
2022-11-17T10:49:34.015Z,12.18
2022-11-17T10:52:16.190Z,10.27
2022-11-17T10:54:43.829Z,12.43
2022-11-17T10:57:20.192Z,13.03
2022-11-17T10:59:56.846Z,15.70
2022-11-17T11:02:33.445Z,20.40
2022-11-17T11:05:10.350Z,19.33
2022-11-17T11:07:38.326Z,13.23
2022-11-17T11:10:43.669Z,15.93
2022-11-17T11:13:52.222Z,12.20
2022-11-17T11:16:19.076Z,14.32
2022-11-17T11:18:48.125Z,10.63
2022-11-17T11:21:32.001Z,13.50
2022-11-17T11:24:17.867Z,10.50
2022-11-17T11:26:51.067Z,12.60
2022-11-17T11:29:45.476Z,9.47
2022-11-17T11:32:18.014Z,7.30
2022-11-17T11:35:07.163Z,10.83
2022-11-17T11:37:43.875Z,9.65
2022-11-17T11:40:11.187Z,11.83
2022-11-17T11:42:59.041Z,8.47
2022-11-17T11:45:44.507Z,9.43
2022-11-17T11:48:16.581Z,8.90
2022-11-17T11:50:52.429Z,10.03
2022-11-17T11:53:32.439Z,10.93
2022-11-17T11:56:12.195Z,11.07
2022-11-17T11:58:47.118Z,10.07
2022-11-17T12:01:17.212Z,13.37
2022-11-17T12:03:54.718Z,12.77
2022-11-17T12:06:42.066Z,12.57
2022-11-17T12:09:14.929Z,13.37
2022-11-17T12:12:01.521Z,15.10
2022-11-17T12:14:28.239Z,13.27
2022-11-17T12:17:17.351Z,13.37
2022-11-17T12:20:07.597Z,13.95
2022-11-17T12:22:37.661Z,15.33
2022-11-17T12:25:29.151Z,14.77
2022-11-17T12:27:56.708Z,9.23
2022-11-17T12:30:37.686Z,16.03
2022-11-17T12:33:06.838Z,20.20
2022-11-17T12:35:39.114Z,13.70
2022-11-17T12:38:18.869Z,12.10
2022-11-17T12:40:54.056Z,21.33
2022-11-17T12:43:21.130Z,10.80
2022-11-17T12:46:12.428Z,14.73
2022-11-17T12:48:45.273Z,12.63
2022-11-17T12:51:34.428Z,11.93
2022-11-17T12:54:27.155Z,16.03
2022-11-17T12:57:02.703Z,17.80
2022-11-17T13:00:07.447Z,18.50
2022-11-17T13:02:58.943Z,20.93
2022-11-17T13:05:30.289Z,19.50
2022-11-17T13:08:24.031Z,16.97
2022-11-17T13:10:51.305Z,16.63
2022-11-17T13:13:21.188Z,17.83
2022-11-17T13:15:58.728Z,14.67
2022-11-17T13:18:38.138Z,24.27
2022-11-17T13:21:16.919Z,24.57
2022-11-17T13:23:45.210Z,13.73
2022-11-17T13:26:31.510Z,13.77
2022-11-17T13:29:11.334Z,14.83
2022-11-17T13:31:38.890Z,15.17
2022-11-17T13:34:13.877Z,13.13
2022-11-17T13:36:57.708Z,17.10
2022-11-17T13:39:27.680Z,9.53
2022-11-17T13:41:57.881Z,12.33
2022-11-17T13:44:27.508Z,15.43
2022-11-17T13:46:55.374Z,12.73
2022-11-17T13:49:38.568Z,16.63
2022-11-17T13:52:13.283Z,15.83
2022-11-17T13:54:45.011Z,14.77
2022-11-17T13:57:26.946Z,12.53
2022-11-17T13:59:54.991Z,21.80
2022-11-17T14:02:24.783Z,14.02
2022-11-17T14:05:09.474Z,14.13
2022-11-17T14:07:39.075Z,17.00
2022-11-17T14:10:20.790Z,22.77
2022-11-17T14:13:00.649Z,23.07
2022-11-17T14:15:30.228Z,23.07
2022-11-17T14:17:59.856Z,27.93
2022-11-17T14:20:34.942Z,24.53
2022-11-17T14:23:08.675Z,18.33
2022-11-17T14:25:40.323Z,16.07
2022-11-17T14:28:19.752Z,17.53
2022-11-17T14:30:51.810Z,24.13
2022-11-17T14:33:19.390Z,20.00
2022-11-17T14:35:50.535Z,18.23
2022-11-17T14:38:19.335Z,18.97
2022-11-17T14:40:46.666Z,21.38
2022-11-17T14:43:13.751Z,19.77
2022-11-17T14:45:40.515Z,19.13
2022-11-17T14:48:07.597Z,26.03
2022-11-17T14:50:34.569Z,34.50
2022-11-17T14:53:01.672Z,21.33
2022-11-17T14:55:28.476Z,23.10
2022-11-17T14:57:55.645Z,17.33
2022-11-17T15:00:22.572Z,16.53
2022-11-17T15:02:49.790Z,18.87
2022-11-17T15:05:17.301Z,19.27
2022-11-17T15:07:44.594Z,21.20
2022-11-17T15:10:12.091Z,26.43
2022-11-17T15:12:39.245Z,25.17
2022-11-17T15:15:06.661Z,25.37
2022-11-17T15:17:33.724Z,32.00
2022-11-17T15:20:00.540Z,31.30
2022-11-17T15:22:27.668Z,25.57
2022-11-17T15:24:54.486Z,33.93
2022-11-17T15:27:21.579Z,26.17
2022-11-17T15:29:48.392Z,48.33
2022-11-17T15:32:15.447Z,57.23
2022-11-17T15:34:42.233Z,41.83
2022-11-17T15:37:09.966Z,37.13
2022-11-17T15:39:36.776Z,31.90
2022-11-17T15:42:03.922Z,34.27
2022-11-17T15:44:30.705Z,37.53
2022-11-17T15:46:57.855Z,25.43
2022-11-17T15:49:24.564Z,35.90
2022-11-17T15:51:51.650Z,35.53
2022-11-17T15:54:20.655Z,27.73
2022-11-17T15:56:48.644Z,29.07
2022-11-17T15:59:15.846Z,33.27
2022-11-17T16:01:43.995Z,23.43
2022-11-17T16:04:13.182Z,25.93
2022-11-17T16:06:42.145Z,23.70
2022-11-17T16:09:10.132Z,26.98
2022-11-17T16:11:37.641Z,42.47
2022-11-17T16:14:05.332Z,32.57
2022-11-17T16:16:35.793Z,33.10
2022-11-17T16:19:02.836Z,36.43
2022-11-17T16:21:29.918Z,31.57
2022-11-17T16:23:57.903Z,31.13
2022-11-17T16:26:26.846Z,26.52
2022-11-17T16:29:02.260Z,28.58
2022-11-17T16:31:32.290Z,32.37
2022-11-17T16:34:10.643Z,27.97
2022-11-17T16:36:39.690Z,26.35
2022-11-17T16:39:11.940Z,24.67
2022-11-17T16:41:40.807Z,32.77
2022-11-17T16:44:16.286Z,37.15
2022-11-17T16:46:46.049Z,34.07
2022-11-17T16:49:15.231Z,34.53
2022-11-17T16:51:50.598Z,36.23
2022-11-17T16:54:18.200Z,33.43
2022-11-17T16:56:45.542Z,34.07
2022-11-17T16:59:12.602Z,34.43
2022-11-17T17:01:39.743Z,19.97
2022-11-17T17:04:08.531Z,20.53
2022-11-17T17:09:06.622Z,23.23
2022-11-17T17:11:35.754Z,18.40
2022-11-17T17:14:06.191Z,17.65
2022-11-17T17:16:35.757Z,23.47
2022-11-17T17:19:05.266Z,30.00
2022-11-17T17:21:33.428Z,30.90
2022-11-17T17:24:00.473Z,29.57
2022-11-17T17:26:29.941Z,29.60
2022-11-17T17:31:29.311Z,26.88
2022-11-17T17:33:56.141Z,26.93
2022-11-17T17:36:24.910Z,25.90
2022-11-17T17:38:56.071Z,26.80
2022-11-17T17:41:26.635Z,23.10
2022-11-17T17:44:04.374Z,28.47
2022-11-17T17:46:34.869Z,22.03
2022-11-17T17:49:01.747Z,14.70
2022-11-17T17:51:29.740Z,15.73
2022-11-17T17:54:00.901Z,16.80
2022-11-17T17:56:30.488Z,14.40
2022-11-17T17:58:58.962Z,19.00
2022-11-17T18:01:28.405Z,16.60
2022-11-17T18:06:28.333Z,14.00
2022-11-17T18:08:55.114Z,21.40
2022-11-17T18:11:22.423Z,28.23
2022-11-17T18:13:51.333Z,22.73
2022-11-17T18:16:22.346Z,20.50
2022-11-17T18:18:49.931Z,37.90
2022-11-17T18:21:19.340Z,25.40
2022-11-17T18:26:18.067Z,24.97
2022-11-17T18:28:58.078Z,34.77
2022-11-17T18:31:27.998Z,18.87
2022-11-17T18:33:56.635Z,22.13
2022-11-17T18:36:23.982Z,18.27
2022-11-17T18:38:52.114Z,14.07
2022-11-17T18:41:20.804Z,17.85
2022-11-17T18:43:48.288Z,16.90
2022-11-17T18:46:20.170Z,12.10
2022-11-17T18:48:49.477Z,21.67
2022-11-17T18:51:20.437Z,16.27
2022-11-17T18:53:49.024Z,16.13
2022-11-17T18:56:21.494Z,18.42
2022-11-17T18:58:48.921Z,30.13
2022-11-17T19:01:22.021Z,35.10
2022-11-17T19:03:51.252Z,57.13
2022-11-17T19:06:19.953Z,39.57
2022-11-17T19:08:48.345Z,28.67
2022-11-17T19:11:17.458Z,38.15
2022-11-17T19:13:45.279Z,25.95
2022-11-17T19:16:16.546Z,51.93
2022-11-17T19:18:45.571Z,21.57
2022-11-17T19:21:15.514Z,20.70
2022-11-17T19:23:50.782Z,23.43
2022-11-17T19:26:23.909Z,20.83
2022-11-17T19:28:54.238Z,25.50
2022-11-17T19:31:21.453Z,26.07
2022-11-17T19:33:50.236Z,27.00
2022-11-17T19:38:45.614Z,24.80
2022-11-17T19:41:21.200Z,19.85
2022-11-17T19:43:48.391Z,17.17
2022-11-17T19:46:17.435Z,23.47
2022-11-17T19:48:44.576Z,26.10
2022-11-17T19:51:32.735Z,24.10
2022-11-17T19:54:04.591Z,28.40
2022-11-17T19:56:31.750Z,23.93
2022-11-17T19:58:58.691Z,20.00
2022-11-17T20:01:27.957Z,29.23
2022-11-17T20:06:27.308Z,36.95
2022-11-17T20:08:55.999Z,36.33
2022-11-17T20:11:26.217Z,25.20
2022-11-17T20:13:54.042Z,25.57
2022-11-17T20:16:26.214Z,36.78
2022-11-17T20:18:55.747Z,26.90
2022-11-17T20:21:23.949Z,27.77
2022-11-17T20:23:51.272Z,22.80
2022-11-17T20:26:21.798Z,24.93
2022-11-17T20:28:49.039Z,24.53
2022-11-17T20:31:19.513Z,30.80
2022-11-17T20:33:47.792Z,29.73
2022-11-17T20:36:17.342Z,26.23
2022-11-17T20:38:44.478Z,27.00
2022-11-17T20:41:11.729Z,27.97
2022-11-17T20:43:38.593Z,23.33
2022-11-17T20:46:05.879Z,21.33
2022-11-17T20:48:35.499Z,21.20
2022-11-17T20:51:05.770Z,21.90
2022-11-17T20:53:33.763Z,25.97
2022-11-17T20:56:02.517Z,22.92
2022-11-17T20:58:30.455Z,19.30
2022-11-17T21:00:57.915Z,21.52
2022-11-17T21:03:26.822Z,21.53
2022-11-17T21:08:29.190Z,21.33
2022-11-17T21:11:04.678Z,17.70
2022-11-17T21:13:33.586Z,24.13
2022-11-17T21:16:09.617Z,21.20
2022-11-17T21:18:38.227Z,21.00
2022-11-17T21:21:09.192Z,19.00
2022-11-17T21:23:37.769Z,18.23
2022-11-17T21:26:06.944Z,21.50
2022-11-17T21:28:34.723Z,19.30
2022-11-17T21:31:07.613Z,20.43
2022-11-17T21:33:35.697Z,16.73
2022-11-17T21:36:05.356Z,17.38
2022-11-17T21:38:32.528Z,18.17
2022-11-17T21:41:07.071Z,17.40
2022-11-17T21:43:36.636Z,17.93
2022-11-17T21:46:06.853Z,19.63
2022-11-17T21:48:35.032Z,17.47
2022-11-17T21:51:03.012Z,16.70
2022-11-17T21:53:30.118Z,19.70
2022-11-17T21:56:01.702Z,25.43
2022-11-17T21:58:28.709Z,15.57
2022-11-17T22:00:56.141Z,20.00
2022-11-17T22:03:23.970Z,17.17
2022-11-17T22:05:52.399Z,20.90
2022-11-17T22:08:19.726Z,17.33
2022-11-17T22:10:46.794Z,17.70
2022-11-17T22:13:13.568Z,17.30
2022-11-17T22:15:40.614Z,15.97
2022-11-17T22:18:07.533Z,18.00
2022-11-17T22:20:34.619Z,14.97
2022-11-17T22:23:01.343Z,15.30
2022-11-17T22:25:44.744Z,15.53
2022-11-17T22:28:12.307Z,14.37
2022-11-17T22:30:39.497Z,15.83
2022-11-17T22:33:06.310Z,17.03
2022-11-17T22:35:33.363Z,17.73
2022-11-17T22:38:00.458Z,18.83
2022-11-17T22:40:27.694Z,16.37
2022-11-17T22:42:54.455Z,17.10
2022-11-17T22:45:21.584Z,18.10
2022-11-17T22:47:48.394Z,16.53
2022-11-17T22:50:15.747Z,17.50
2022-11-17T22:52:42.487Z,16.43
2022-11-17T22:55:09.540Z,18.63
2022-11-17T22:57:36.308Z,17.47
2022-11-17T23:00:05.699Z,13.87
2022-11-17T23:04:59.415Z,15.67
2022-11-17T23:07:26.216Z,14.37
2022-11-17T23:09:53.284Z,15.70
2022-11-17T23:12:20.051Z,16.03
2022-11-17T23:14:47.147Z,16.97
2022-11-17T23:17:14.503Z,14.80
2022-11-17T23:19:41.559Z,16.47
2022-11-17T23:22:08.407Z,15.10
2022-11-17T23:24:35.476Z,20.33
2022-11-17T23:27:02.224Z,13.63
2022-11-17T23:29:29.372Z,17.20
2022-11-17T23:31:56.207Z,16.07
2022-11-17T23:34:23.342Z,16.03
2022-11-17T23:36:50.107Z,14.67
2022-11-17T23:39:17.260Z,14.07
2022-11-17T23:41:44.224Z,15.33
2022-11-17T23:44:11.254Z,13.83
2022-11-17T23:46:38.095Z,14.00
2022-11-17T23:49:05.207Z,14.00
2022-11-17T23:51:32.044Z,13.40
2022-11-17T23:54:00.675Z,15.10
2022-11-17T23:56:27.663Z,14.52
2022-11-17T23:58:54.800Z,14.03
